Aérodrome :
LOGIN :

S'inscrire | Disclaimer

   EN    FR    IT 

 










Légende :    VFR   VFR Marginal   IFR   IFR Intensif   IFR Très Intensif
Visi : 
Plafond : 
>= 8 km
>= 3000ft
5 à 8 km
1000 à 3000 ft
1500m à 5 km
500 à 1000 ft
800 à 1500m
200 à 500 ft
< 800m
< 200 ft
Symboles :   Orages  Brouillard  Fortes neiges  Fortes précipitations  Vent > 20 kt
SIGMETs :   Divers  Orages  Givrage  Turbulence  Onde Orograph.  Cendres Volcan.






- Altitude de l'aérodrome : 55 ft
- Code IATA : DSA


EGCN - Robin Hood Doncaster Sheffield

DERNIER METAR :
  • 242150Z 27016KT 240V300 9999 SCT025 06/02 Q1001

METARs EXPIRÉS :
  • 242120Z 27016KT 9999 SCT023 SCT030 06/02 Q1000
  • 242050Z 25018KT 9999 SCT030 07/02 Q1001
  • 242020Z 26018G28KT 9999 FEW031 06/02 Q1001
  • 241950Z 26017KT 9999 SCT028 07/02 Q1000
  • 241920Z 26020G34KT 9999 FEW030 07/02 Q1000

TAF AMD TAF EGCN
Valide du 24 à 19h jusqu'au 25 à 18h UTC


241910Z 2419/2518 24015KT 9999 SCT025
TEMPO 2419/2502 25020G35KT
PROB40
TEMPO 2502/2518 6000 SHRA BKN010



MET'MAP, la Météo Aéronautique d'un coup d'oeil ! - Copyright ORBIFLY Décembre 2007 - Disclaimer

ORBIFLY MET'MAP TEAM :

Programmation & Développement : Alexandra Zaïnal
Sur une idée originale de : Baudouin d'Aumeries
Assistance à la programmation : Marc-Olivier Méhu
Soutien technique & logistique : Manuel Goepfert

Contact : metmap@orbifly.com




SOURCES & CREDITS :

   NOAA